Time;durP1;ratioP1;P1;durP2;ratioP2;P2;SDS_P1;SDS_P2;PMS_P1;PMS_P2;Temp;Humidity;BMP_temperature;BMP_pressure;BME280_temperature;BME280_humidity;BME280_pressure;Samples;Min_cycle;Max_cycle;Signal;HPM_P1;HPM_P2
2022/10/19 00:00:47;;;;;;;17.63;9.30;;;;;;;6.06;79.54;95472.72;5058240;28;20178;-80
2022/10/19 00:03:13;;;;;;;20.67;10.03;;;;;;;6.05;79.58;95460.66;5063349;28;20174;-80
2022/10/19 00:05:39;;;;;;;18.23;9.93;;;;;;;5.97;79.15;95450.19;5061067;28;20186;-80
2022/10/19 00:08:04;;;;;;;32.57;10.13;;;;;;;6.06;79.05;95477.94;5061280;28;20179;-80
2022/10/19 00:10:31;;;;;;;16.93;8.03;;;;;;;6.07;79.11;95472.56;5062153;28;20211;-80
2022/10/19 00:12:56;;;;;;;19.33;8.67;;;;;;;6.04;79.22;95465.06;5058762;28;20593;-80
2022/10/19 00:15:22;;;;;;;16.03;7.83;;;;;;;5.99;79.18;95461.31;5060973;28;20175;-80
2022/10/19 00:17:47;;;;;;;16.60;8.67;;;;;;;6.01;79.58;95468.00;5064832;28;20559;-80
2022/10/19 00:20:12;;;;;;;18.40;8.20;;;;;;;6.00;79.28;95458.53;5064251;28;20253;-80
2022/10/19 00:22:38;;;;;;;15.47;8.13;;;;;;;5.93;79.60;95441.91;5062080;28;20188;-80
2022/10/19 00:25:04;;;;;;;13.93;7.77;;;;;;;5.97;79.56;95461.47;5061192;28;20305;-80
2022/10/19 00:27:30;;;;;;;12.80;7.40;;;;;;;5.99;79.41;95451.69;5060825;28;20971;-80
2022/10/19 00:29:55;;;;;;;12.37;7.43;;;;;;;5.89;79.69;95434.53;5060980;28;20176;-80
2022/10/19 00:32:21;;;;;;;17.70;7.80;;;;;;;5.93;79.58;95433.25;5059529;28;20178;-80
2022/10/19 00:34:46;;;;;;;13.27;7.83;;;;;;;5.94;79.42;95440.09;5062179;28;20174;-80
2022/10/19 00:37:11;;;;;;;14.70;7.30;;;;;;;5.94;79.27;95437.50;5060665;28;20191;-80
2022/10/19 00:39:37;;;;;;;14.17;6.90;;;;;;;5.90;78.99;95425.72;5060619;28;20175;-80
2022/10/19 00:42:02;;;;;;;15.57;6.90;;;;;;;5.86;79.34;95421.81;5038889;28;20185;-80
2022/10/19 00:44:28;;;;;;;12.97;7.00;;;;;;;5.81;79.58;95421.47;5065970;28;20269;-80
2022/10/19 00:47:01;;;;;;;15.10;8.00;;;;;;;5.79;79.73;95418.25;5060500;28;20202;-80
2022/10/19 00:49:34;;;;;;;14.40;8.63;;;;;;;5.76;80.14;95413.34;5057720;28;20218;-80
2022/10/19 00:52:09;;;;;;;11.53;6.90;;;;;;;5.78;79.87;95411.38;5061946;28;20177;-80
2022/10/19 00:54:37;;;;;;;15.57;7.37;;;;;;;5.72;79.85;95407.63;5058443;28;20650;-79
2022/10/19 00:57:04;;;;;;;18.73;7.60;;;;;;;5.72;80.12;95401.59;5061898;28;20185;-80
2022/10/19 00:59:30;;;;;;;14.57;8.07;;;;;;;5.71;80.16;95400.75;5060669;28;20177;-80
2022/10/19 01:01:56;;;;;;;17.13;7.73;;;;;;;5.68;80.25;95396.72;5060751;28;20178;-80
2022/10/19 01:04:24;;;;;;;19.47;7.77;;;;;;;5.61;80.37;95395.75;5052178;28;20183;-80
2022/10/19 01:06:52;;;;;;;14.43;7.23;;;;;;;5.44;80.34;95375.88;5060393;28;20578;-80
2022/10/19 01:09:18;;;;;;;15.00;7.33;;;;;;;5.49;80.72;95376.19;5062255;28;20700;-80
2022/10/19 01:12:05;;;;;;;16.30;7.37;;;;;;;5.46;80.81;95373.09;5066742;28;20224;-80
2022/10/19 01:14:58;;;;;;;16.73;8.00;;;;;;;5.52;80.66;95385.50;5052285;28;20182;-80
2022/10/19 01:17:45;;;;;;;16.13;8.17;;;;;;;5.47;80.92;95378.16;5062268;28;20599;-80
2022/10/19 01:20:13;;;;;;;16.93;7.53;;;;;;;5.52;80.63;95377.66;5063491;28;20227;-80
2022/10/19 01:23:04;;;;;;;17.97;7.67;;;;;;;5.55;80.29;95372.09;5055675;28;20198;-80
2022/10/19 01:25:47;;;;;;;14.03;6.87;;;;;;;5.50;80.15;95370.00;5063647;28;20250;-80
2022/10/19 01:28:58;;;;;;;15.57;7.60;;;;;;;5.45;79.94;95374.09;5063396;28;20187;-80
2022/10/19 01:31:43;;;;;;;17.20;7.53;;;;;;;5.31;79.84;95350.28;5061499;28;20182;-80
2022/10/19 01:34:18;;;;;;;16.80;8.70;;;;;;;5.40;80.13;95369.34;5060246;28;20175;-80
2022/10/19 01:37:03;;;;;;;18.87;8.40;;;;;;;5.37;80.31;95361.84;5060273;28;20592;-79
2022/10/19 01:39:29;;;;;;;15.87;8.57;;;;;;;5.40;80.38;95365.94;5038935;28;20581;-80
2022/10/19 01:42:03;;;;;;;16.77;8.60;;;;;;;5.34;80.08;95367.41;5068152;28;20175;-80
2022/10/19 01:44:38;;;;;;;19.30;8.00;;;;;;;5.28;80.33;95352.41;5068368;28;20193;-80
2022/10/19 01:47:10;;;;;;;17.60;9.07;;;;;;;5.33;80.41;95355.34;5052400;28;20225;-80
2022/10/19 01:49:45;;;;;;;25.20;10.03;;;;;;;5.30;80.00;95353.88;5059743;28;20322;-80
2022/10/19 01:52:14;;;;;;;17.20;8.03;;;;;;;5.22;80.15;95342.63;5052997;28;20170;-80
2022/10/19 01:54:43;;;;;;;21.10;8.73;;;;;;;5.20;80.29;95345.41;5060018;28;20175;-79
2022/10/19 01:57:12;;;;;;;17.03;8.23;;;;;;;5.21;80.58;95348.81;5051770;28;20235;-80
2022/10/19 01:59:38;;;;;;;20.63;9.73;;;;;;;4.87;80.38;95300.28;5059318;28;20190;-80
2022/10/19 02:02:08;;;;;;;12.63;7.30;;;;;;;5.14;79.89;95346.06;5054805;28;20174;-80
2022/10/19 02:04:35;;;;;;;17.23;8.10;;;;;;;5.12;79.94;95347.22;5062003;28;20175;-80
2022/10/19 02:07:03;;;;;;;20.77;7.90;;;;;;;5.09;80.20;95339.72;5063016;28;20605;-80
2022/10/19 02:09:29;;;;;;;22.30;10.00;;;;;;;5.00;80.30;95338.91;5071804;28;20163;-80
2022/10/19 02:11:59;;;;;;;15.97;7.97;;;;;;;4.98;80.23;95350.50;5066713;28;20582;-80
2022/10/19 02:14:31;;;;;;;17.70;8.60;;;;;;;4.73;80.31;95305.34;5055500;28;20179;-79
2022/10/19 02:17:21;;;;;;;13.70;7.90;;;;;;;4.91;80.67;95338.13;5063055;28;20552;-80
2022/10/19 02:19:46;;;;;;;13.83;6.67;;;;;;;4.88;80.83;95333.22;5057684;28;20198;-80
2022/10/19 02:22:12;;;;;;;18.43;7.90;;;;;;;4.92;80.94;95331.09;5063147;28;20555;-79
2022/10/19 02:24:38;;;;;;;12.90;6.93;;;;;;;4.69;80.90;95298.81;5066142;28;20205;-79
2022/10/19 02:27:06;;;;;;;18.67;7.57;;;;;;;4.93;80.74;95343.97;5071796;28;20194;-80
2022/10/19 02:29:33;;;;;;;16.77;8.33;;;;;;;4.96;80.88;95332.38;5070288;28;20533;-80
2022/10/19 02:31:59;;;;;;;15.13;7.87;;;;;;;4.89;80.86;95321.00;5068872;28;20175;-80
2022/10/19 02:34:25;;;;;;;17.93;8.90;;;;;;;4.91;81.02;95339.91;5057215;28;20229;-80
2022/10/19 02:36:51;;;;;;;15.60;8.87;;;;;;;4.74;80.89;95307.81;5058577;28;20174;-80
2022/10/19 02:39:17;;;;;;;19.87;8.67;;;;;;;4.60;80.95;95295.41;5071478;28;20205;-80
2022/10/19 02:42:03;;;;;;;21.63;10.00;;;;;;;4.88;81.28;95340.22;5070275;28;20178;-81
2022/10/19 02:44:41;;;;;;;20.20;9.87;;;;;;;4.91;81.49;95339.91;5058841;28;20185;-81
2022/10/19 02:47:14;;;;;;;21.57;11.27;;;;;;;4.92;81.28;95337.13;5050417;28;20693;-80
2022/10/19 02:49:41;;;;;;;21.17;11.27;;;;;;;4.76;81.27;95313.66;5057900;28;20223;-81
2022/10/19 02:52:09;;;;;;;20.60;10.80;;;;;;;4.87;81.38;95339.41;5057049;28;20660;-80
2022/10/19 02:54:36;;;;;;;23.77;12.73;;;;;;;4.87;81.31;95339.41;5070503;28;20186;-80
2022/10/19 02:57:26;;;;;;;20.23;11.60;;;;;;;4.83;81.04;95321.66;5068328;28;20170;-80
2022/10/19 02:59:52;;;;;;;22.10;12.20;;;;;;;4.49;81.20;95282.72;5057768;28;20195;-80
2022/10/19 03:02:19;;;;;;;26.03;14.40;;;;;;;4.80;81.15;95338.44;5056506;28;20546;-80
2022/10/19 03:04:45;;;;;;;25.20;14.43;;;;;;;4.40;81.56;95275.88;5056535;28;20178;-80
2022/10/19 03:07:16;;;;;;;26.73;15.47;;;;;;;4.80;81.38;95329.78;5070874;28;20585;-81
2022/10/19 03:09:42;;;;;;;22.23;13.93;;;;;;;4.78;81.37;95336.97;5059670;28;20179;-80
2022/10/19 03:12:08;;;;;;;20.90;13.80;;;;;;;4.75;81.40;95334.69;5058494;28;20661;-80
2022/10/19 03:14:33;;;;;;;31.73;16.33;;;;;;;4.78;81.39;95332.56;5070697;28;20194;-80
2022/10/19 03:16:59;;;;;;;22.70;13.90;;;;;;;4.70;81.20;95326.53;5070600;28;20190;-80
2022/10/19 03:19:24;;;;;;;22.93;14.87;;;;;;;4.70;81.41;95324.75;5057756;28;20323;-80
2022/10/19 03:21:50;;;;;;;21.30;11.27;;;;;;;4.61;81.65;95323.09;5059351;28;20174;-80
2022/10/19 03:24:16;;;;;;;20.37;11.63;;;;;;;4.57;81.47;95321.81;5069156;28;20174;-81
2022/10/19 03:26:41;;;;;;;23.20;15.90;;;;;;;4.67;81.67;95330.28;5066122;28;21047;-82
2022/10/19 03:29:07;;;;;;;21.10;12.10;;;;;;;4.64;82.03;95332.41;5053751;28;20217;-82
2022/10/19 03:31:33;;;;;;;21.60;12.50;;;;;;;4.61;82.12;95327.50;5053472;28;20167;-82
2022/10/19 03:33:58;;;;;;;17.60;11.97;;;;;;;4.61;82.01;95322.28;5053511;28;20179;-81
2022/10/19 03:36:30;;;;;;;18.47;11.43;;;;;;;4.61;82.23;95323.09;5063856;28;20221;-81
2022/10/19 03:38:58;;;;;;;15.90;11.17;;;;;;;4.48;81.86;95309.75;5057780;28;20190;-81
2022/10/19 03:41:26;;;;;;;13.33;9.00;;;;;;;4.35;81.63;95283.34;5059892;28;20988;-81
2022/10/19 03:43:51;;;;;;;16.80;8.77;;;;;;;4.30;82.00;95283.84;5056197;28;20187;-81
2022/10/19 03:46:17;;;;;;;14.30;8.70;;;;;;;4.51;81.73;95320.66;5066121;28;20202;-81
2022/10/19 03:48:43;;;;;;;21.07;9.60;;;;;;;4.38;82.05;95307.31;5064194;28;20254;-81
2022/10/19 03:51:12;;;;;;;14.13;7.87;;;;;;;4.47;81.85;95324.56;5059296;28;20638;-81
2022/10/19 03:53:39;;;;;;;19.53;9.33;;;;;;;4.48;81.97;95314.97;5071390;28;20173;-81
2022/10/19 03:56:16;;;;;;;15.00;8.67;;;;;;;4.54;81.66;95306.50;5072853;28;20155;-81
2022/10/19 03:58:43;;;;;;;16.30;10.40;;;;;;;4.53;82.06;95315.28;5072805;28;20166;-81
2022/10/19 04:01:12;;;;;;;22.73;12.03;;;;;;;4.56;81.68;95314.97;5088429;28;20174;-81
2022/10/19 04:03:37;;;;;;;25.47;13.83;;;;;;;4.52;81.92;95314.47;5066428;28;20221;-81
2022/10/19 04:06:05;;;;;;;43.70;18.57;;;;;;;4.54;81.62;95309.09;5057402;28;20237;-81
2022/10/19 04:08:31;;;;;;;39.07;20.07;;;;;;;4.35;81.33;95286.75;5061211;28;20186;-81
2022/10/19 04:11:02;;;;;;;54.37;25.47;;;;;;;4.49;81.40;95314.00;5062579;28;20242;-81
2022/10/19 04:13:28;;;;;;;52.70;23.07;;;;;;;4.43;81.70;95317.22;5072495;28;20581;-81
2022/10/19 04:15:54;;;;;;;54.00;26.17;;;;;;;4.16;82.07;95284.47;5078420;28;20175;-81
2022/10/19 04:18:20;;;;;;;46.63;23.40;;;;;;;4.40;81.76;95309.75;5056515;28;20191;-81
2022/10/19 04:20:45;;;;;;;48.40;23.57;;;;;;;4.33;81.29;95300.91;5058708;28;20166;-81
2022/10/19 04:23:10;;;;;;;44.67;21.93;;;;;;;3.97;81.66;95233.50;5061317;28;20179;-80
2022/10/19 04:25:36;;;;;;;44.17;20.17;;;;;;;3.87;81.56;95221.59;5052586;28;20250;-85
2022/10/19 04:28:01;;;;;;;48.00;21.73;;;;;;;3.92;82.01;95227.94;5064986;28;20179;-85
2022/10/19 04:30:27;;;;;;;45.17;22.47;;;;;;;3.78;81.50;95215.56;5062349;28;20179;-83
2022/10/19 04:32:52;;;;;;;50.10;21.73;;;;;;;4.30;81.86;95294.25;5060010;28;20715;-82
2022/10/19 04:35:17;;;;;;;51.67;22.37;;;;;;;4.10;82.10;95262.47;5055462;28;20250;-82
2022/10/19 04:37:43;;;;;;;51.23;21.97;;;;;;;4.34;81.92;95284.31;5063848;28;20167;-82
2022/10/19 04:40:09;;;;;;;51.80;23.47;;;;;;;4.30;81.95;95283.84;5069331;28;20163;-82
2022/10/19 04:42:35;;;;;;;46.77;20.77;;;;;;;4.25;81.95;95277.47;5069419;28;20198;-82
2022/10/19 04:45:00;;;;;;;47.67;23.33;;;;;;;4.13;81.78;95256.97;5072309;28;20647;-82
2022/10/19 04:47:28;;;;;;;64.83;26.03;;;;;;;4.35;81.56;95293.75;5070797;28;20217;-82
2022/10/19 04:49:53;;;;;;;56.23;23.93;;;;;;;4.28;81.36;95285.78;5072043;28;20230;-82
2022/10/19 04:52:18;;;;;;;58.43;26.77;;;;;;;4.33;81.68;95293.94;5072338;28;20167;-82
2022/10/19 04:54:44;;;;;;;68.53;25.67;;;;;;;3.97;82.13;95245.72;5061613;28;20308;-82
2022/10/19 04:57:10;;;;;;;61.27;26.87;;;;;;;4.33;81.64;95300.91;5054743;28;20209;-82
2022/10/19 04:59:35;;;;;;;58.53;26.23;;;;;;;3.88;81.60;95220.63;5054597;28;20189;-82
2022/10/19 05:02:01;;;;;;;69.20;27.00;;;;;;;4.38;81.69;95302.09;5060336;28;20171;-83
2022/10/19 05:04:26;;;;;;;56.60;25.50;;;;;;;4.35;81.78;95285.94;5051986;28;20584;-81
2022/10/19 05:06:51;;;;;;;48.40;25.60;;;;;;;4.48;81.60;95278.47;5052193;28;20223;-81
2022/10/19 05:09:17;;;;;;;66.57;27.13;;;;;;;4.70;80.64;95267.38;5051938;28;20247;-81
2022/10/19 05:11:42;;;;;;;62.17;26.93;;;;;;;5.11;79.77;95251.66;5054337;28;20179;-81
2022/10/19 05:14:08;;;;;;;73.80;28.40;;;;;;;5.86;77.71;95244.16;5062969;28;20258;-81
2022/10/19 05:16:33;;;;;;;70.13;27.03;;;;;;;6.79;74.14;95292.72;5068884;28;20609;-82
2022/10/19 05:18:59;;;;;;;67.50;29.17;;;;;;;7.29;71.91;95295.69;5055404;28;20239;-82
2022/10/19 05:21:26;;;;;;;68.40;29.70;;;;;;;7.52;69.48;95291.19;5052118;28;20164;-84
2022/10/19 05:23:53;;;;;;;61.33;29.33;;;;;;;7.72;68.89;95294.06;5050568;28;20209;-81
2022/10/19 05:26:20;;;;;;;66.97;31.47;;;;;;;8.27;68.40;95294.31;5051718;28;20187;-83
2022/10/19 05:28:47;;;;;;;65.70;30.20;;;;;;;9.25;65.45;95303.31;5051699;28;20164;-82
2022/10/19 05:31:18;;;;;;;68.60;31.17;;;;;;;10.05;61.11;95295.66;5052293;28;20183;-82
2022/10/19 05:33:44;;;;;;;83.90;35.10;;;;;;;10.41;59.42;95305.09;5051714;28;20164;-82
2022/10/19 05:36:09;;;;;;;67.97;30.13;;;;;;;10.24;58.99;95309.09;5052900;28;20167;-82
2022/10/19 05:38:34;;;;;;;81.20;32.00;;;;;;;10.24;60.13;95295.94;5053160;28;20217;-82
2022/10/19 05:41:00;;;;;;;71.40;28.70;;;;;;;11.19;58.59;95304.41;5052228;28;20167;-82
2022/10/19 05:43:25;;;;;;;73.83;27.37;;;;;;;12.72;53.93;95281.78;5051687;28;20258;-82
2022/10/19 05:45:50;;;;;;;77.50;29.40;;;;;;;14.76;48.97;95297.47;5057317;28;20190;-82
2022/10/19 05:48:16;;;;;;;71.17;27.33;;;;;;;16.45;43.81;95315.19;5056544;28;20615;-82
2022/10/19 05:50:51;;;;;;;56.45;27.80;;;;;;;17.97;40.50;95297.34;5057807;28;20171;-82
2022/10/19 05:53:17;;;;;;;40.33;23.38;;;;;;;19.33;37.39;95297.25;5055174;28;20163;-82
2022/10/19 05:55:43;;;;;;;38.78;18.27;;;;;;;20.35;34.62;95293.44;5071837;28;20375;-83
2022/10/19 05:58:08;;;;;;;23.98;12.15;;;;;;;20.42;33.69;95280.63;5063749;28;20639;-84
2022/10/19 06:00:33;;;;;;;43.88;15.82;;;;;;;19.87;34.04;95265.09;5058573;28;20252;-82
2022/10/19 06:02:59;;;;;;;23.70;12.95;;;;;;;19.41;34.81;95272.75;5058522;28;20536;-83
2022/10/19 06:05:24;;;;;;;24.63;13.23;;;;;;;19.42;34.81;95269.03;5055171;28;20178;-81
2022/10/19 06:07:49;;;;;;;30.77;13.80;;;;;;;20.30;33.84;95282.69;5059402;28;20637;-81
2022/10/19 06:10:15;;;;;;;30.50;15.75;;;;;;;21.34;32.45;95298.56;5061173;28;20174;-81
2022/10/19 06:12:40;;;;;;;33.58;15.82;;;;;;;22.15;30.53;95298.47;5059364;28;20183;-82
2022/10/19 06:15:06;;;;;;;25.67;10.10;;;;;;;22.88;29.23;95266.56;5070410;28;20187;-85
2022/10/19 06:17:31;;;;;;;19.25;9.77;;;;;;;23.87;27.65;95293.25;5088986;28;20620;-84
2022/10/19 06:19:57;;;;;;;19.45;9.35;;;;;;;24.93;26.87;95327.09;5073321;28;20664;-85
2022/10/19 06:22:22;;;;;;;21.17;9.70;;;;;;;25.49;25.30;95285.88;5073468;28;20198;-83
2022/10/19 06:24:48;;;;;;;21.65;9.30;;;;;;;26.46;24.30;95291.25;5071755;28;20193;-84
2022/10/19 06:27:13;;;;;;;22.70;9.73;;;;;;;27.41;23.46;95333.59;5075052;28;20186;-86
2022/10/19 06:29:39;;;;;;;22.77;9.88;;;;;;;27.74;22.81;95284.69;5074710;28;20182;-86
2022/10/19 06:32:04;;;;;;;21.05;10.18;;;;;;;28.26;21.75;95296.63;5073197;28;20665;-86
2022/10/19 06:34:30;;;;;;;22.95;9.95;;;;;;;28.82;21.20;95300.50;5075670;28;20155;-84
2022/10/19 06:36:55;;;;;;;17.10;9.68;;;;;;;29.37;20.71;95284.53;5066635;28;20253;-87
2022/10/19 06:39:20;;;;;;;24.55;9.68;;;;;;;30.21;19.84;95324.69;5070256;28;20182;-86
2022/10/19 06:41:46;;;;;;;19.33;10.18;;;;;;;30.28;19.26;95289.66;5069407;28;20668;-87
2022/10/19 06:44:11;;;;;;;23.92;9.48;;;;;;;30.95;19.08;95327.00;5063035;28;20196;-87
2022/10/19 06:46:37;;;;;;;23.10;10.25;;;;;;;30.99;19.22;95286.31;5074777;28;20187;-87
2022/10/19 06:49:02;;;;;;;20.85;9.43;;;;;;;31.36;18.53;95287.38;5074614;28;20713;-86
2022/10/19 06:51:30;;;;;;;21.98;9.93;;;;;;;31.50;18.15;95279.72;5074412;28;20657;-86
2022/10/19 06:53:56;;;;;;;25.95;9.55;;;;;;;31.53;18.16;95267.38;5074755;28;20173;-87
2022/10/19 06:56:23;;;;;;;24.17;10.70;;;;;;;31.67;18.00;95320.47;5074304;28;20238;-86
2022/10/19 06:58:48;;;;;;;22.30;10.30;;;;;;;31.42;18.36;95308.63;5074383;28;20212;-85
2022/10/19 07:01:14;;;;;;;19.13;10.75;;;;;;;30.87;19.06;95316.97;5073181;28;20166;-86
2022/10/19 07:03:40;;;;;;;19.60;9.15;;;;;;;30.05;19.17;95312.75;5089688;28;20189;-82
2022/10/19 07:06:08;;;;;;;20.02;9.43;;;;;;;28.88;20.08;95293.84;5073989;28;20198;-84
2022/10/19 07:08:34;;;;;;;19.15;9.40;;;;;;;27.84;21.00;95243.81;5074068;28;20166;-85
2022/10/19 07:11:02;;;;;;;21.17;9.52;;;;;;;27.01;22.25;95266.88;5072644;28;20244;-83
2022/10/19 07:13:29;;;;;;;20.45;8.93;;;;;;;26.20;23.89;95292.78;5074405;28;20159;-81
2022/10/19 07:16:05;;;;;;;19.13;9.73;;;;;;;25.34;24.35;95286.13;5073941;28;20175;-81
2022/10/19 07:18:31;;;;;;;19.40;9.60;;;;;;;24.57;25.30;95285.50;5074365;28;20150;-83
2022/10/19 07:20:58;;;;;;;25.60;11.98;;;;;;;23.89;27.42;95266.84;5073859;28;20572;-83
2022/10/19 07:23:26;;;;;;;27.73;16.98;;;;;;;23.32;27.82;95263.03;5066495;28;20170;-85
2022/10/19 07:25:54;;;;;;;24.33;14.75;;;;;;;22.85;28.13;95285.09;5070195;28;20253;-84
2022/10/19 07:28:21;;;;;;;21.98;10.95;;;;;;;22.54;29.12;95287.91;5067376;28;20167;-84
2022/10/19 07:30:46;;;;;;;18.70;10.25;;;;;;;21.88;30.68;95268.47;5069189;28;20254;-85
2022/10/19 07:33:12;;;;;;;20.70;9.05;;;;;;;21.68;31.24;95276.56;5072006;28;20262;-85
2022/10/19 07:35:37;;;;;;;19.27;9.30;;;;;;;20.66;32.44;95203.41;5073524;28;20535;-85
2022/10/19 07:38:03;;;;;;;18.38;8.82;;;;;;;20.27;32.55;95194.97;5073339;28;20708;-85
2022/10/19 07:40:28;;;;;;;18.90;9.63;;;;;;;20.03;32.67;95170.56;5089411;28;20158;-84
2022/10/19 07:42:54;;;;;;;14.25;8.80;;;;;;;20.29;33.76;95265.84;5067441;28;20604;-83
2022/10/19 07:45:19;;;;;;;14.90;8.98;;;;;;;19.54;33.07;95188.78;5033797;28;20183;-85
2022/10/19 07:47:44;;;;;;;18.50;9.40;;;;;;;19.51;33.13;95191.94;5033221;28;20204;-85
2022/10/19 07:50:10;;;;;;;16.75;8.45;;;;;;;19.72;34.13;95247.09;5053039;28;20222;-85
2022/10/19 07:52:35;;;;;;;18.00;8.88;;;;;;;19.48;36.08;95221.81;5053915;28;20198;-86
2022/10/19 07:55:01;;;;;;;18.67;8.45;;;;;;;19.20;34.05;95154.31;5056493;28;20233;-85
2022/10/19 07:57:26;;;;;;;18.45;9.32;;;;;;;19.21;35.60;95158.59;5056441;28;20167;-85
2022/10/19 07:59:51;;;;;;;19.48;9.02;;;;;;;19.66;35.18;95213.41;5058740;28;20167;-84
2022/10/19 08:02:18;;;;;;;19.27;8.45;;;;;;;19.35;35.15;95180.34;5076390;28;20661;-83
2022/10/19 08:04:44;;;;;;;19.73;9.63;;;;;;;19.21;36.00;95155.94;5071665;28;20178;-84
2022/10/19 08:07:09;;;;;;;16.80;9.05;;;;;;;19.51;35.83;95179.41;5067589;28;20691;-83
2022/10/19 08:09:35;;;;;;;25.80;10.05;;;;;;;20.10;36.10;95237.13;5058771;28;20171;-84
2022/10/19 08:12:00;;;;;;;19.55;8.98;;;;;;;20.05;34.96;95199.72;5056365;28;20201;-84
2022/10/19 08:14:26;;;;;;;17.85;9.40;;;;;;;19.91;34.95;95151.25;5068194;28;20555;-82
2022/10/19 08:16:51;;;;;;;22.50;10.18;;;;;;;20.54;34.62;95238.41;5072669;28;20163;-82
2022/10/19 08:19:17;;;;;;;16.20;9.02;;;;;;;20.13;34.97;95167.13;5073334;28;20245;-82
2022/10/19 08:21:44;;;;;;;18.40;8.32;;;;;;;20.28;34.58;95186.69;5072599;28;20158;-82
2022/10/19 08:24:11;;;;;;;20.50;9.35;;;;;;;20.69;35.32;95222.38;5071658;28;20170;-83
2022/10/19 08:26:37;;;;;;;17.77;8.93;;;;;;;20.77;34.63;95223.72;5055347;28;20194;-82
2022/10/19 08:29:08;;;;;;;24.92;10.75;;;;;;;20.80;34.51;95209.81;5048898;28;20175;-82
2022/10/19 08:31:34;;;;;;;19.23;9.15;;;;;;;20.75;32.99;95177.72;5067650;28;20327;-82
2022/10/19 08:33:59;;;;;;;16.17;7.68;;;;;;;21.22;33.52;95223.00;5068559;28;20286;-83
2022/10/19 08:36:25;;;;;;;20.13;7.57;;;;;;;20.93;33.30;95137.03;5060520;28;20170;-83
2022/10/19 08:38:51;;;;;;;17.83;8.75;;;;;;;21.26;34.46;95210.69;5050084;28;20175;-82
2022/10/19 08:41:19;;;;;;;17.80;7.80;;;;;;;21.50;33.03;95215.47;5065132;28;20174;-82
2022/10/19 08:44:22;;;;;;;15.63;7.40;;;;;;;21.55;33.68;95210.09;5062365;28;20257;-83
2022/10/19 08:47:08;;;;;;;9.73;5.55;;;;;;;21.63;32.44;95209.56;5070543;28;20284;-83
2022/10/19 08:49:33;;;;;;;16.88;6.35;;;;;;;21.69;32.76;95211.16;5068228;28;20297;-83
2022/10/19 08:52:07;;;;;;;13.50;6.43;;;;;;;21.61;34.23;95193.78;5055363;28;20736;-83
2022/10/19 08:55:04;;;;;;;15.00;5.82;;;;;;;21.76;33.18;95201.78;5069245;28;20688;-83
2022/10/19 08:57:49;;;;;;;6.68;4.78;;;;;;;21.82;32.84;95205.22;5053391;28;20669;-83
2022/10/19 09:00:34;;;;;;;9.18;3.85;;;;;;;21.69;32.55;95174.47;5056000;28;20313;-83
2022/10/19 09:03:03;;;;;;;9.18;4.10;;;;;;;21.86;34.43;95194.78;5060417;28;20646;-83
2022/10/19 09:05:52;;;;;;;13.20;5.72;;;;;;;21.58;33.07;95142.59;5048599;28;20182;-83
2022/10/19 09:08:19;;;;;;;8.63;4.18;;;;;;;21.35;33.85;95104.63;5049279;28;20194;-83
2022/10/19 09:10:48;;;;;;;7.88;3.83;;;;;;;21.88;32.79;95200.69;5052021;28;20187;-83
2022/10/19 09:13:34;;;;;;;12.57;4.70;;;;;;;21.87;33.86;95191.03;5070400;28;20181;-82
2022/10/19 09:16:00;;;;;;;7.85;4.20;;;;;;;21.74;33.46;95195.88;5065782;28;20194;-80
2022/10/19 09:18:31;;;;;;;5.88;3.38;;;;;;;21.70;33.68;95185.97;5065675;28;20171;-81
2022/10/19 09:21:20;;;;;;;9.55;3.28;;;;;;;21.62;34.28;95194.56;5069894;28;20170;-81
2022/10/19 09:23:48;;;;;;;5.53;3.33;;;;;;;21.45;34.08;95190.28;5071536;28;20565;-80
2022/10/19 09:26:20;;;;;;;9.73;3.20;;;;;;;21.30;33.98;95190.31;5066718;28;20256;-80
2022/10/19 09:29:20;;;;;;;7.95;3.13;;;;;;;21.22;34.24;95180.16;5066154;28;20179;-82
2022/10/19 09:31:45;;;;;;;4.53;3.20;;;;;;;21.16;35.26;95185.75;5053821;28;20187;-83
2022/10/19 09:34:20;;;;;;;5.78;3.20;;;;;;;21.26;34.94;95196.50;5067983;28;20182;-81
2022/10/19 09:36:51;;;;;;;12.63;2.97;;;;;;;21.19;35.60;95194.06;5069679;28;20170;-90
2022/10/19 09:39:17;;;;;;;13.95;3.30;;;;;;;20.87;35.22;95151.47;5060340;28;20177;-84
2022/10/19 09:41:57;;;;;;;5.93;3.70;;;;;;;20.87;34.26;95182.78;5058254;28;20658;-84
2022/10/19 09:44:24;;;;;;;4.55;3.22;;;;;;;20.70;35.42;95150.94;5055785;28;20662;-84
2022/10/19 09:47:02;;;;;;;12.23;2.92;;;;;;;20.81;35.62;95191.91;5054378;28;20682;-84
2022/10/19 09:49:42;;;;;;;8.07;3.33;;;;;;;20.54;36.01;95146.66;5070223;28;20218;-85
2022/10/19 09:52:47;;;;;;;12.98;4.38;;;;;;;20.72;36.27;95178.25;5070573;28;20174;-84
2022/10/19 09:55:12;;;;;;;12.13;3.65;;;;;;;20.62;36.12;95183.56;5063336;28;20198;-85
2022/10/19 09:57:42;;;;;;;9.35;3.28;;;;;;;20.58;37.55;95175.25;5059104;28;20537;-84
2022/10/19 10:00:22;;;;;;;5.68;2.85;;;;;;;20.08;35.59;95145.69;5057909;28;20236;-84
2022/10/19 10:02:53;;;;;;;4.82;2.95;;;;;;;20.26;35.44;95177.31;5072444;28;20261;-84
2022/10/19 10:05:28;;;;;;;8.75;3.40;;;;;;;20.05;36.50;95152.41;5072031;28;20708;-86
2022/10/19 10:07:54;;;;;;;6.25;3.33;;;;;;;20.19;36.41;95166.06;5053891;28;20202;-85
2022/10/19 10:10:23;;;;;;;4.50;3.22;;;;;;;20.16;37.36;95158.56;5052885;28;20270;-85
2022/10/19 10:12:52;;;;;;;9.32;3.03;;;;;;;19.90;36.06;95115.72;5065701;28;20188;-84
2022/10/19 10:15:23;;;;;;;10.68;3.53;;;;;;;19.98;35.40;95135.00;5069340;28;20218;-84
2022/10/19 10:17:49;;;;;;;8.23;4.07;;;;;;;20.01;36.23;95139.81;5075507;28;20183;-85
2022/10/19 10:20:23;;;;;;;4.05;3.60;;;;;;;20.07;35.98;95141.41;5065694;28;20261;-85
2022/10/19 10:23:21;;;;;;;6.00;3.13;;;;;;;20.00;36.82;95124.81;5067942;28;20213;-85
2022/10/19 10:25:47;;;;;;;22.10;3.80;;;;;;;19.64;37.10;95065.91;5090087;28;20189;-85
2022/10/19 10:28:21;;;;;;;14.02;2.92;;;;;;;19.59;35.67;95058.72;5046974;28;20199;-85
2022/10/19 10:30:51;;;;;;;11.77;3.17;;;;;;;19.68;36.79;95087.59;5072594;28;20190;-86
2022/10/19 10:33:25;;;;;;;7.80;3.22;;;;;;;19.83;37.18;95114.34;5064464;28;20255;-85
2022/10/19 10:35:56;;;;;;;5.53;2.75;;;;;;;19.47;37.51;95062.63;5053344;28;20186;-87
2022/10/19 10:38:29;;;;;;;11.07;2.75;;;;;;;19.83;37.83;95112.47;5088579;28;20170;-86
2022/10/19 10:41:22;;;;;;;5.43;3.08;;;;;;;19.88;37.06;95106.38;5072985;28;20179;-86
2022/10/19 10:44:05;;;;;;;12.85;3.22;;;;;;;19.77;36.60;95104.72;5065026;28;20341;-86
2022/10/19 10:46:54;;;;;;;6.70;2.85;;;;;;;19.21;36.01;95027.00;5052624;28;20195;-85
2022/10/19 10:49:35;;;;;;;6.10;3.30;;;;;;;19.65;38.25;95099.59;5053037;28;20221;-86
2022/10/19 10:52:05;;;;;;;10.20;2.90;;;;;;;19.70;38.52;95082.78;5072399;28;20558;-86
2022/10/19 10:54:32;;;;;;;10.98;3.45;;;;;;;19.77;37.04;95083.34;5063816;28;20715;-87
2022/10/19 10:57:15;;;;;;;9.80;3.40;;;;;;;19.82;37.55;95084.16;5071276;28;20209;-86
2022/10/19 11:00:01;;;;;;;11.75;2.78;;;;;;;19.88;36.22;95085.00;5070809;28;20183;-86
2022/10/19 11:02:36;;;;;;;16.52;3.28;;;;;;;19.93;36.33;95075.09;5072187;28;20170;-86
2022/10/19 11:05:17;;;;;;;5.35;2.95;;;;;;;20.00;37.97;95074.84;5063633;28;20210;-86
2022/10/19 11:07:46;;;;;;;7.05;2.72;;;;;;;19.93;36.03;95060.94;5070741;28;20198;-85
2022/10/19 11:10:24;;;;;;;3.83;2.50;;;;;;;20.01;34.94;95073.78;5084559;28;20639;-86
2022/10/19 11:13:13;;;;;;;3.50;2.60;;;;;;;20.04;33.82;95065.25;5070628;28;20330;-86
2022/10/19 11:15:54;;;;;;;5.43;2.65;;;;;;;20.07;33.40;95064.69;5087878;28;20178;-86
2022/10/19 11:18:40;;;;;;;4.30;2.65;;;;;;;20.12;33.50;95055.91;5068614;28;20171;-85
2022/10/19 11:21:10;;;;;;;5.13;2.35;;;;;;;19.88;32.79;95019.00;5062901;28;20182;-86
2022/10/19 11:23:50;;;;;;;6.13;2.58;;;;;;;20.16;32.40;95060.44;5060090;28;20182;-86
2022/10/19 11:26:27;;;;;;;6.35;2.65;;;;;;;20.20;31.43;95052.69;5063039;28;20198;-86
2022/10/19 11:29:01;;;;;;;4.57;2.30;;;;;;;20.24;32.79;95051.91;5070319;28;20174;-86
2022/10/19 11:31:52;;;;;;;12.13;2.72;;;;;;;20.07;32.62;95018.47;5076786;28;20187;-86
2022/10/19 11:34:24;;;;;;;4.03;2.55;;;;;;;20.23;32.22;95050.31;5059396;28;20560;-86
2022/10/19 11:37:14;;;;;;;7.70;2.75;;;;;;;20.12;32.09;95043.34;5071732;28;20646;-86
2022/10/19 11:39:50;;;;;;;7.03;2.47;;;;;;;20.05;31.48;95039.31;5073806;28;20190;-85